Time;durP1;ratioP1;P1;durP2;ratioP2;P2;SDS_P1;SDS_P2;PMS_P1;PMS_P2;Temp;Humidity;BMP_temperature;BMP_pressure;BME280_temperature;BME280_humidity;BME280_pressure;Samples;Min_cycle;Max_cycle;Signal;HPM_P1;HPM_P2
2022/07/06 00:00:33;;;;;;;3.33;2.10;;;16.20;99.90;;;;;;5140328;28;20167;-84
2022/07/06 00:02:59;;;;;;;4.07;2.20;;;16.20;99.90;;;;;;5126164;28;20563;-84
2022/07/06 00:05:25;;;;;;;4.27;2.00;;;16.20;99.90;;;;;;5123080;28;20185;-84
2022/07/06 00:07:51;;;;;;;3.97;2.23;;;16.20;99.90;;;;;;5123326;28;20193;-84
2022/07/06 00:10:16;;;;;;;2.37;1.73;;;16.20;99.90;;;;;;5122814;28;20209;-84
2022/07/06 00:12:42;;;;;;;3.10;1.90;;;16.20;99.90;;;;;;5121742;28;20293;-85
2022/07/06 00:15:10;;;;;;;3.60;2.20;;;16.20;99.90;;;;;;5122038;28;20176;-85
2022/07/06 00:17:36;;;;;;;5.97;2.23;;;16.10;99.90;;;;;;5122182;28;20267;-84
2022/07/06 00:20:02;;;;;;;2.27;2.03;;;16.10;99.90;;;;;;5122006;28;20625;-84
2022/07/06 00:22:27;;;;;;;2.00;1.87;;;16.00;99.90;;;;;;5122983;28;20200;-85
2022/07/06 00:24:53;;;;;;;2.80;1.90;;;16.00;99.90;;;;;;5123088;28;20222;-84
2022/07/06 00:27:18;;;;;;;2.03;1.73;;;16.00;99.90;;;;;;5122342;28;20174;-85
2022/07/06 00:29:45;;;;;;;1.83;1.73;;;16.00;99.90;;;;;;5124059;28;20201;-85
2022/07/06 00:32:11;;;;;;;2.03;1.83;;;16.00;99.90;;;;;;5122456;28;20734;-84
2022/07/06 00:34:39;;;;;;;2.77;1.70;;;16.00;99.90;;;;;;5123814;28;20170;-84
2022/07/06 00:37:06;;;;;;;2.57;1.60;;;16.10;99.90;;;;;;5124580;28;20167;-84
2022/07/06 00:39:32;;;;;;;1.70;1.53;;;16.10;99.90;;;;;;5122159;28;20272;-85
2022/07/06 00:41:58;;;;;;;3.70;1.53;;;16.10;99.90;;;;;;5123465;28;20189;-85
2022/07/06 00:44:24;;;;;;;5.57;1.50;;;16.10;99.90;;;;;;5122244;28;20177;-85
2022/07/06 00:46:49;;;;;;;3.20;1.73;;;16.10;99.90;;;;;;5122681;28;20266;-85
2022/07/06 00:52:00;;;;;;;1.53;1.40;;;16.20;99.90;;;;;;5124734;28;20259;-85
2022/07/06 00:54:29;;;;;;;2.17;1.50;;;16.20;99.90;;;;;;5124623;28;20182;-85
2022/07/06 00:56:55;;;;;;;2.90;1.77;;;16.20;99.90;;;;;;5127226;28;20635;-85
2022/07/06 00:59:21;;;;;;;1.67;1.57;;;16.20;99.90;;;;;;5123083;28;20212;-85
2022/07/06 01:01:47;;;;;;;2.33;1.70;;;16.20;99.90;;;;;;5121705;28;20197;-85
2022/07/06 01:04:13;;;;;;;2.80;1.53;;;16.10;99.90;;;;;;5121875;28;20182;-85
2022/07/06 01:06:39;;;;;;;2.47;1.50;;;16.10;99.90;;;;;;5122631;28;20699;-85
2022/07/06 01:09:05;;;;;;;1.97;1.70;;;16.00;99.90;;;;;;5122088;28;20245;-85
2022/07/06 01:11:31;;;;;;;2.70;1.60;;;16.00;99.90;;;;;;5121813;28;20232;-85
2022/07/06 01:13:57;;;;;;;2.53;1.80;;;16.00;99.90;;;;;;5121416;28;20176;-85
2022/07/06 01:16:23;;;;;;;2.53;1.70;;;16.00;99.90;;;;;;5121653;28;20185;-84
2022/07/06 01:18:49;;;;;;;2.27;1.60;;;15.90;99.90;;;;;;5122152;28;20189;-84
2022/07/06 01:21:15;;;;;;;2.23;1.80;;;15.80;99.90;;;;;;5123605;28;20218;-85
2022/07/06 01:23:43;;;;;;;1.80;1.70;;;15.70;99.90;;;;;;5123190;28;20180;-85
2022/07/06 01:26:14;;;;;;;2.30;1.90;;;15.70;99.90;;;;;;5122590;28;20177;-85
2022/07/06 01:28:40;;;;;;;2.10;1.90;;;15.60;99.90;;;;;;5122957;28;20168;-85
2022/07/06 01:31:13;;;;;;;3.17;1.73;;;15.60;99.90;;;;;;5127188;28;20180;-85
2022/07/06 01:33:38;;;;;;;2.53;1.97;;;15.50;99.90;;;;;;5138477;28;20173;-84
2022/07/06 01:36:04;;;;;;;2.67;2.10;;;15.50;99.90;;;;;;5137521;28;20188;-84
2022/07/06 01:38:30;;;;;;;2.57;2.10;;;15.50;99.90;;;;;;5120066;28;20189;-84
2022/07/06 01:40:56;;;;;;;2.23;1.87;;;15.30;99.90;;;;;;5120063;28;20204;-85
2022/07/06 01:43:21;;;;;;;2.50;2.30;;;15.30;99.90;;;;;;5120238;28;20174;-84
2022/07/06 01:45:47;;;;;;;4.13;2.00;;;15.30;99.90;;;;;;5120945;28;20242;-85
2022/07/06 01:48:13;;;;;;;2.70;2.00;;;15.30;99.90;;;;;;5120897;28;20181;-85
2022/07/06 01:50:38;;;;;;;2.50;2.30;;;15.20;99.90;;;;;;5121591;28;20179;-85
2022/07/06 01:53:04;;;;;;;2.17;1.93;;;15.20;99.90;;;;;;5123973;28;20191;-84
2022/07/06 01:55:30;;;;;;;3.07;2.40;;;15.20;99.90;;;;;;5119392;28;20180;-84
2022/07/06 01:57:56;;;;;;;4.83;2.10;;;;;;;;;;5121095;28;20172;-84
2022/07/06 02:00:22;;;;;;;2.60;2.07;;;15.10;99.90;;;;;;5119724;28;20332;-84
2022/07/06 02:02:47;;;;;;;2.70;1.90;;;15.10;99.90;;;;;;5119292;28;20253;-84
2022/07/06 02:05:13;;;;;;;3.33;2.07;;;15.00;99.90;;;;;;5121532;28;20178;-84
2022/07/06 02:07:39;;;;;;;2.00;1.80;;;;;;;;;;5120319;28;20221;-84
2022/07/06 02:10:05;;;;;;;1.90;1.80;;;15.00;99.90;;;;;;5121937;28;20180;-84
2022/07/06 02:12:30;;;;;;;3.23;1.80;;;14.90;99.90;;;;;;5121840;28;20195;-84
2022/07/06 02:14:56;;;;;;;2.10;1.90;;;14.90;99.90;;;;;;5120543;28;20274;-84
2022/07/06 02:17:22;;;;;;;5.50;2.10;;;14.90;99.90;;;;;;5120273;28;20190;-84
2022/07/06 02:19:47;;;;;;;3.23;2.00;;;14.80;99.90;;;;;;5120374;28;20604;-84
2022/07/06 02:22:13;;;;;;;4.40;2.10;;;14.80;99.90;;;;;;5120305;28;20199;-84
2022/07/06 02:24:39;;;;;;;3.20;2.20;;;;;;;;;;5119795;28;20179;-84
2022/07/06 02:27:05;;;;;;;2.43;2.20;;;14.80;99.90;;;;;;5120568;28;20168;-83
2022/07/06 02:29:31;;;;;;;3.30;2.33;;;;;;;;;;5119285;28;20588;-84
2022/07/06 02:31:57;;;;;;;2.90;2.33;;;14.80;99.90;;;;;;5119094;28;20244;-84
2022/07/06 02:34:23;;;;;;;3.53;2.73;;;;;;;;;;5119238;28;20179;-85
2022/07/06 02:36:48;;;;;;;6.10;2.27;;;14.80;99.90;;;;;;5119207;28;20172;-84
2022/07/06 02:39:14;;;;;;;2.50;2.30;;;;;;;;;;5118134;28;20190;-84
2022/07/06 02:41:40;;;;;;;2.60;2.40;;;14.70;99.90;;;;;;5119446;28;20329;-84
2022/07/06 02:44:06;;;;;;;2.57;2.37;;;;;;;;;;5118822;28;20176;-84
2022/07/06 02:46:32;;;;;;;3.97;2.73;;;14.80;99.90;;;;;;5120346;28;20182;-84
2022/07/06 02:48:58;;;;;;;2.70;2.50;;;;;;;;;;5121299;28;20192;-84
2022/07/06 02:51:24;;;;;;;2.70;2.50;;;;;;;;;;5125752;28;20188;-84
2022/07/06 02:53:50;;;;;;;2.53;2.20;;;;;;;;;;5125463;28;20176;-84
2022/07/06 02:56:16;;;;;;;2.70;2.50;;;;;;;;;;5131503;28;20648;-84
2022/07/06 02:58:42;;;;;;;2.90;2.63;;;14.60;99.90;;;;;;5128047;28;20166;-83
2022/07/06 03:01:08;;;;;;;3.30;2.50;;;;;;;;;;5141832;28;20266;-83
2022/07/06 03:03:33;;;;;;;2.80;2.60;;;14.60;99.90;;;;;;5141832;28;20203;-84
2022/07/06 03:05:59;;;;;;;2.53;2.33;;;;;;;;;;5122475;28;20175;-84
2022/07/06 03:08:25;;;;;;;3.87;2.77;;;14.50;99.90;;;;;;5120315;28;20179;-84
2022/07/06 03:10:51;;;;;;;3.17;2.70;;;14.50;99.90;;;;;;5119932;28;20182;-84
2022/07/06 03:13:17;;;;;;;5.67;2.70;;;14.50;99.90;;;;;;5119989;28;20543;-84
2022/07/06 03:15:42;;;;;;;3.30;2.20;;;14.40;99.90;;;;;;5119844;28;20202;-84
2022/07/06 03:18:08;;;;;;;4.63;2.70;;;14.40;99.90;;;;;;5121937;28;20675;-84
2022/07/06 03:20:33;;;;;;;4.30;2.80;;;14.40;99.90;;;;;;5120160;28;20199;-84
2022/07/06 03:22:59;;;;;;;5.40;2.63;;;14.40;99.90;;;;;;5120331;28;20191;-84
2022/07/06 03:25:25;;;;;;;5.57;3.00;;;;;;;;;;5122036;28;20170;-84
2022/07/06 03:27:51;;;;;;;2.77;2.57;;;14.30;99.90;;;;;;5120418;28;20176;-84
2022/07/06 03:30:17;;;;;;;2.73;2.53;;;;;;;;;;5120191;28;20188;-84
2022/07/06 03:32:43;;;;;;;5.40;2.80;;;14.50;99.90;;;;;;5122406;28;20227;-83
2022/07/06 03:35:09;;;;;;;2.27;2.07;;;14.20;99.90;;;;;;5122816;28;20656;-84
2022/07/06 03:37:35;;;;;;;3.37;2.80;;;;;;;;;;5121930;28;20198;-84
2022/07/06 03:40:00;;;;;;;2.93;2.63;;;14.00;99.90;;;;;;5120260;28;20205;-84
2022/07/06 03:42:26;;;;;;;3.33;2.57;;;;;;;;;;5121645;28;20215;-84
2022/07/06 03:44:52;;;;;;;2.90;2.67;;;;;;;;;;5120137;28;20389;-84
2022/07/06 03:47:18;;;;;;;3.37;2.43;;;14.20;99.90;;;;;;5121267;28;20168;-84
2022/07/06 03:49:44;;;;;;;2.80;2.60;;;14.10;99.90;;;;;;5119958;28;20333;-84
2022/07/06 03:52:10;;;;;;;2.47;2.13;;;;;;;;;;5121584;28;20271;-84
2022/07/06 03:54:36;;;;;;;2.33;2.13;;;14.20;99.90;;;;;;5120237;28;20190;-84
2022/07/06 03:57:02;;;;;;;3.33;2.33;;;;;;;;;;5120115;28;20576;-84
2022/07/06 03:59:27;;;;;;;3.30;2.27;;;14.20;99.90;;;;;;5120197;28;20183;-84
2022/07/06 04:01:53;;;;;;;3.97;2.37;;;14.20;99.90;;;;;;5122523;28;20711;-84
2022/07/06 04:04:19;;;;;;;2.70;2.50;;;14.20;99.90;;;;;;5122409;28;20655;-84
2022/07/06 04:06:45;;;;;;;3.50;3.00;;;;;;;;;;5122501;28;20629;-84
2022/07/06 04:09:10;;;;;;;3.07;2.80;;;14.30;99.90;;;;;;5122445;28;20190;-84
2022/07/06 04:11:36;;;;;;;4.30;2.70;;;;;;;;;;5122196;28;20199;-84
2022/07/06 04:14:03;;;;;;;3.43;2.77;;;;;;;;;;5123317;28;20183;-85
2022/07/06 04:16:28;;;;;;;3.83;2.23;;;14.20;99.90;;;;;;5122617;28;20184;-84
2022/07/06 04:18:54;;;;;;;3.03;2.40;;;;;;;;;;5122846;28;20202;-84
2022/07/06 04:21:20;;;;;;;3.17;2.70;;;;;;;;;;5124557;27;20241;-84
2022/07/06 04:23:46;;;;;;;2.40;2.20;;;14.40;99.90;;;;;;5124234;28;20172;-85
2022/07/06 04:26:12;;;;;;;2.97;2.77;;;14.50;99.90;;;;;;5122975;28;20171;-85
2022/07/06 04:28:38;;;;;;;3.87;3.07;;;;;;;;;;5123927;28;20179;-85
2022/07/06 04:31:03;;;;;;;2.70;2.37;;;14.70;99.90;;;;;;5125258;28;20213;-85
2022/07/06 04:33:29;;;;;;;4.00;2.63;;;;;;;;;;5123339;28;20179;-85
2022/07/06 04:35:55;;;;;;;3.17;2.63;;;14.70;99.90;;;;;;5124628;28;20660;-85
2022/07/06 04:38:21;;;;;;;2.40;2.20;;;;;;;;;;5130502;28;20195;-84
2022/07/06 04:40:47;;;;;;;3.43;2.43;;;14.70;99.90;;;;;;5139753;28;20195;-84
2022/07/06 04:43:13;;;;;;;6.90;2.60;;;14.70;99.90;;;;;;5135849;28;20282;-85
2022/07/06 04:45:39;;;;;;;3.30;2.30;;;14.80;99.90;;;;;;5120948;28;20607;-84
2022/07/06 04:48:08;;;;;;;5.13;2.70;;;14.80;99.90;;;;;;5120758;28;20167;-85
2022/07/06 04:50:33;;;;;;;3.27;2.50;;;14.90;99.90;;;;;;5119467;28;20546;-84
2022/07/06 04:52:59;;;;;;;2.40;2.10;;;;;;;;;;5119540;28;20210;-84
2022/07/06 04:55:25;;;;;;;2.67;2.47;;;15.00;99.90;;;;;;5118733;28;20229;-84
2022/07/06 04:57:51;;;;;;;4.00;2.50;;;15.00;99.90;;;;;;5120623;28;20171;-85
2022/07/06 05:00:17;;;;;;;4.33;2.40;;;;;;;;;;5120460;28;20553;-85
2022/07/06 05:02:43;;;;;;;2.80;2.30;;;15.20;99.90;;;;;;5120536;28;20298;-85
2022/07/06 05:05:09;;;;;;;3.93;2.43;;;15.30;99.90;;;;;;5122611;28;20629;-85
2022/07/06 05:07:39;;;;;;;3.10;2.33;;;;;;;;;;5120973;28;20197;-84
2022/07/06 05:10:09;;;;;;;3.53;2.30;;;15.30;99.90;;;;;;5121006;28;20175;-85
2022/07/06 05:12:35;;;;;;;5.20;2.23;;;15.40;99.90;;;;;;5120974;28;20688;-84
2022/07/06 05:15:07;;;;;;;3.07;2.37;;;15.40;99.90;;;;;;5120016;28;20179;-85
2022/07/06 05:17:32;;;;;;;2.83;2.57;;;15.50;99.90;;;;;;5120087;28;20191;-86
2022/07/06 05:19:58;;;;;;;6.10;2.80;;;15.60;99.90;;;;;;5120804;28;20199;-86
2022/07/06 05:22:24;;;;;;;3.47;2.23;;;;;;;;;;5120328;28;20224;-87
2022/07/06 05:24:51;;;;;;;2.07;1.87;;;15.70;99.90;;;;;;5128338;28;20694;-87
2022/07/06 05:27:16;;;;;;;3.73;2.10;;;15.70;99.90;;;;;;5118458;28;20191;-86
2022/07/06 05:29:42;;;;;;;5.33;2.47;;;15.80;99.90;;;;;;5118972;28;20175;-86
2022/07/06 05:32:08;;;;;;;5.60;1.97;;;;;;;;;;5118399;28;20199;-87
2022/07/06 05:34:36;;;;;;;1.80;1.70;;;15.90;99.90;;;;;;5119051;28;20171;-87
2022/07/06 05:37:02;;;;;;;3.40;1.90;;;16.10;99.90;;;;;;5120387;28;20256;-84
2022/07/06 05:39:28;;;;;;;3.97;2.07;;;16.10;99.90;;;;;;5119122;28;20198;-85
2022/07/06 05:41:55;;;;;;;2.00;1.80;;;;;;;;;;5121546;28;20223;-86
2022/07/06 05:44:21;;;;;;;3.10;1.73;;;;;;;;;;5120112;28;20199;-85
2022/07/06 05:46:46;;;;;;;2.60;1.80;;;16.10;99.90;;;;;;5121714;28;20176;-85
2022/07/06 05:51:56;;;;;;;1.87;1.77;;;16.30;99.90;;;;;;5123526;28;20667;-85
2022/07/06 05:54:22;;;;;;;2.20;1.60;;;;;;;;;;5124324;28;20180;-85
2022/07/06 05:56:48;;;;;;;3.87;1.80;;;16.30;99.90;;;;;;5124351;28;20655;-85
2022/07/06 05:59:14;;;;;;;3.30;2.40;;;;;;;;;;5119989;28;20176;-85
2022/07/06 06:01:40;;;;;;;2.23;1.83;;;16.40;99.90;;;;;;5123055;28;20211;-86
2022/07/06 06:04:05;;;;;;;4.23;1.80;;;16.40;99.90;;;;;;5123451;28;20182;-85
2022/07/06 06:06:31;;;;;;;2.73;1.90;;;16.50;99.90;;;;;;5124395;28;20183;-85
2022/07/06 06:08:57;;;;;;;3.23;2.00;;;;;;;;;;5124017;28;20182;-85
2022/07/06 06:11:23;;;;;;;5.00;2.43;;;16.60;99.90;;;;;;5122622;28;20246;-85
2022/07/06 06:13:49;;;;;;;2.13;1.57;;;;;;;;;;5123798;28;20175;-85
2022/07/06 06:16:15;;;;;;;2.07;1.83;;;16.60;99.90;;;;;;5123829;28;20179;-85
2022/07/06 06:18:41;;;;;;;2.90;1.90;;;;;;;;;;5133994;28;20159;-84
2022/07/06 06:21:07;;;;;;;2.77;1.80;;;16.70;99.90;;;;;;5137836;28;20196;-84
2022/07/06 06:23:33;;;;;;;1.60;1.50;;;16.70;99.90;;;;;;5127828;28;20656;-84
2022/07/06 06:25:59;;;;;;;3.03;2.17;;;;;;;;;;5125297;28;20176;-84
2022/07/06 06:28:24;;;;;;;2.07;1.60;;;16.80;99.90;;;;;;5124693;28;20218;-84
2022/07/06 06:30:50;;;;;;;1.87;1.70;;;;;;;;;;5126653;28;20172;-84
2022/07/06 06:33:18;;;;;;;2.90;1.70;;;17.00;99.90;;;;;;5127081;28;20285;-84
2022/07/06 06:35:49;;;;;;;3.23;1.90;;;17.00;99.90;;;;;;5125442;28;20184;-84
2022/07/06 06:38:16;;;;;;;2.83;1.90;;;17.00;99.90;;;;;;5124834;28;20195;-84
2022/07/06 06:40:42;;;;;;;6.33;2.10;;;17.00;99.90;;;;;;5125828;28;20665;-84
2022/07/06 06:43:08;;;;;;;3.17;1.70;;;;;;;;;;5125467;28;20209;-84
2022/07/06 06:45:35;;;;;;;4.47;1.87;;;17.20;99.90;;;;;;5125437;28;20513;-84
2022/07/06 06:48:01;;;;;;;3.33;1.73;;;17.30;99.90;;;;;;5124184;28;20180;-84
2022/07/06 06:50:27;;;;;;;2.13;1.80;;;17.40;99.90;;;;;;5125436;28;20181;-84
2022/07/06 06:52:53;;;;;;;2.27;1.83;;;17.40;99.90;;;;;;5125396;28;20211;-84
2022/07/06 06:55:19;;;;;;;2.50;1.63;;;;;;;;;;5126662;28;20176;-84
2022/07/06 06:57:45;;;;;;;2.30;2.00;;;17.40;99.90;;;;;;5126033;28;20179;-84
2022/07/06 07:00:12;;;;;;;5.40;1.80;;;17.50;99.90;;;;;;5130332;28;20234;-83
2022/07/06 07:02:38;;;;;;;3.67;1.87;;;17.50;99.90;;;;;;5123863;28;20745;-84
2022/07/06 07:05:05;;;;;;;3.60;2.00;;;17.60;99.90;;;;;;5122307;28;20182;-84
2022/07/06 07:07:31;;;;;;;1.87;1.77;;;17.60;99.90;;;;;;5122142;28;20180;-84
2022/07/06 07:09:57;;;;;;;2.90;1.80;;;17.70;99.90;;;;;;5123892;28;20224;-84
2022/07/06 07:12:23;;;;;;;2.17;1.57;;;;;;;;;;5123849;28;20212;-84
2022/07/06 07:14:49;;;;;;;3.60;1.90;;;17.90;99.90;;;;;;5125014;28;20520;-84
2022/07/06 07:17:14;;;;;;;1.97;1.73;;;18.00;99.90;;;;;;5122842;28;20212;-84
2022/07/06 07:19:41;;;;;;;3.50;1.70;;;;;;;;;;5122886;28;20188;-84
2022/07/06 07:22:06;;;;;;;3.73;1.90;;;18.20;99.90;;;;;;5125132;28;20198;-84
2022/07/06 07:24:32;;;;;;;2.63;1.80;;;18.20;99.90;;;;;;5124004;28;20181;-84
2022/07/06 07:26:58;;;;;;;2.43;1.90;;;18.20;99.90;;;;;;5125409;28;20168;-84
2022/07/06 07:29:24;;;;;;;5.10;2.30;;;18.30;99.90;;;;;;5127292;28;20191;-84
2022/07/06 07:31:49;;;;;;;3.20;2.00;;;18.30;99.90;;;;;;5124255;28;20193;-84
2022/07/06 07:34:16;;;;;;;5.77;2.00;;;;;;;;;;5125370;28;20169;-84
2022/07/06 07:36:41;;;;;;;2.07;1.63;;;18.40;99.90;;;;;;5123159;28;20605;-84
2022/07/06 07:39:07;;;;;;;1.70;1.40;;;18.50;99.90;;;;;;5124293;28;20256;-84
2022/07/06 07:41:33;;;;;;;2.77;1.67;;;18.60;99.90;;;;;;5124699;28;20221;-84
2022/07/06 07:43:59;;;;;;;3.13;1.70;;;18.60;99.90;;;;;;5124751;28;20169;-85
2022/07/06 07:46:24;;;;;;;3.47;1.87;;;18.70;99.90;;;;;;5125502;28;20196;-84
2022/07/06 07:48:50;;;;;;;3.10;1.60;;;18.80;99.90;;;;;;5123961;28;20563;-85
2022/07/06 07:51:16;;;;;;;3.07;1.70;;;18.90;99.90;;;;;;5125632;28;20181;-84
2022/07/06 07:53:41;;;;;;;2.47;1.80;;;18.90;99.90;;;;;;5124993;28;20176;-84
2022/07/06 07:56:07;;;;;;;2.10;1.70;;;19.00;99.90;;;;;;5133074;28;20165;-84
2022/07/06 07:58:33;;;;;;;4.23;1.93;;;19.10;99.90;;;;;;5140165;28;20181;-84
2022/07/06 08:01:00;;;;;;;1.80;1.70;;;19.20;99.90;;;;;;5133006;28;20212;-84
2022/07/06 08:03:26;;;;;;;2.83;1.63;;;19.30;99.90;;;;;;5122424;28;20198;-84
2022/07/06 08:05:51;;;;;;;4.47;2.00;;;19.40;99.90;;;;;;5125292;28;20639;-84
2022/07/06 08:08:17;;;;;;;1.83;1.60;;;;;;;;;;5122628;28;20190;-84
2022/07/06 08:10:44;;;;;;;2.27;1.70;;;19.50;99.90;;;;;;5123306;28;20218;-85
2022/07/06 08:13:10;;;;;;;3.30;1.63;;;19.60;99.90;;;;;;5124111;28;20199;-84
2022/07/06 08:15:36;;;;;;;3.73;1.80;;;19.60;99.90;;;;;;5125449;28;20179;-85
2022/07/06 08:18:02;;;;;;;1.93;1.63;;;19.70;99.90;;;;;;5123994;28;20175;-85
2022/07/06 08:20:29;;;;;;;3.70;2.00;;;19.80;99.90;;;;;;5127143;28;20695;-85
2022/07/06 08:22:55;;;;;;;3.17;1.57;;;19.90;99.90;;;;;;5128728;28;20203;-85
2022/07/06 08:25:21;;;;;;;3.33;1.60;;;20.00;99.90;;;;;;5125624;28;20188;-84
2022/07/06 08:27:46;;;;;;;3.87;1.60;;;20.10;99.90;;;;;;5123449;28;20180;-84
2022/07/06 08:30:12;;;;;;;3.67;1.67;;;20.10;99.90;;;;;;5123794;28;20183;-84
2022/07/06 08:32:42;;;;;;;3.33;1.87;;;20.30;99.90;;;;;;5124329;28;20282;-85
2022/07/06 08:35:09;;;;;;;2.47;1.93;;;20.40;99.90;;;;;;5124490;28;20186;-84
2022/07/06 08:37:34;;;;;;;2.70;1.87;;;20.60;99.90;;;;;;5128424;28;20257;-84
2022/07/06 08:40:01;;;;;;;4.00;1.93;;;20.70;99.90;;;;;;5120564;28;20207;-84
2022/07/06 08:42:30;;;;;;;2.47;1.80;;;20.90;99.90;;;;;;5122290;28;20190;-84
2022/07/06 08:45:00;;;;;;;4.30;2.00;;;21.10;99.90;;;;;;5121311;28;20213;-84
2022/07/06 08:47:27;;;;;;;2.80;1.80;;;21.20;99.90;;;;;;5121236;28;20179;-84
2022/07/06 08:49:53;;;;;;;4.33;1.83;;;21.40;99.90;;;;;;5120923;28;20744;-85
2022/07/06 08:52:20;;;;;;;3.73;1.90;;;21.60;99.90;;;;;;5123170;28;20191;-85
2022/07/06 08:54:46;;;;;;;5.20;2.20;;;21.70;99.90;;;;;;5122988;28;20179;-85
2022/07/06 08:57:13;;;;;;;5.33;1.83;;;22.00;99.90;;;;;;5121681;28;20175;-85
2022/07/06 08:59:39;;;;;;;3.73;1.97;;;22.20;99.90;;;;;;5123106;28;20171;-85
2022/07/06 09:02:05;;;;;;;2.23;1.60;;;22.10;99.90;;;;;;5121353;28;20206;-85
2022/07/06 09:04:35;;;;;;;2.97;2.03;;;22.20;99.90;;;;;;5122548;28;20171;-85
2022/07/06 09:07:00;;;;;;;3.17;2.30;;;22.30;99.90;;;;;;5121596;28;20229;-85
2022/07/06 09:09:30;;;;;;;2.47;2.20;;;22.40;99.90;;;;;;5123501;28;20176;-85
2022/07/06 09:11:57;;;;;;;2.10;1.90;;;22.60;99.90;;;;;;5121805;28;20672;-85
2022/07/06 09:14:22;;;;;;;3.23;2.33;;;22.70;99.90;;;;;;5122934;28;20180;-85
2022/07/06 09:17:01;;;;;;;3.43;1.90;;;22.80;99.90;;;;;;5123540;28;20683;-85
2022/07/06 09:19:27;;;;;;;4.03;2.10;;;22.90;99.90;;;;;;5124979;28;20163;-85
2022/07/06 09:21:54;;;;;;;2.90;1.97;;;23.10;99.90;;;;;;5123558;28;20663;-85
2022/07/06 09:24:19;;;;;;;5.53;1.93;;;23.30;99.90;;;;;;5123390;28;20168;-85
2022/07/06 09:26:48;;;;;;;3.23;1.90;;;23.40;99.90;;;;;;5124393;28;20554;-85
2022/07/06 09:29:13;;;;;;;2.47;1.80;;;23.30;99.90;;;;;;5125423;28;20167;-86
2022/07/06 09:31:40;;;;;;;1.80;1.67;;;23.30;99.90;;;;;;5131485;28;20198;-85
2022/07/06 09:34:09;;;;;;;2.73;2.20;;;23.40;99.90;;;;;;5137128;28;20176;-85
2022/07/06 09:36:47;;;;;;;2.87;1.73;;;23.40;99.90;;;;;;5122802;28;20171;-85
2022/07/06 09:39:26;;;;;;;2.70;2.00;;;23.60;99.90;;;;;;5122144;28;20187;-85
2022/07/06 09:41:54;;;;;;;2.40;1.90;;;23.60;99.90;;;;;;5120720;28;20210;-85
2022/07/06 09:44:26;;;;;;;3.20;1.90;;;23.70;99.90;;;;;;5122659;28;20171;-85
2022/07/06 09:46:55;;;;;;;5.03;2.37;;;23.80;99.90;;;;;;5122963;28;20563;-85
2022/07/06 09:49:21;;;;;;;3.33;2.00;;;23.80;99.90;;;;;;5122782;28;20176;-85
2022/07/06 09:51:49;;;;;;;4.63;1.90;;;23.90;99.90;;;;;;5123034;28;20192;-85
2022/07/06 09:54:15;;;;;;;2.67;1.80;;;23.90;99.90;;;;;;5122340;28;20245;-85
2022/07/06 09:56:43;;;;;;;1.63;1.50;;;24.00;99.90;;;;;;5122366;28;20261;-86
2022/07/06 09:59:15;;;;;;;4.53;1.63;;;24.20;99.90;;;;;;5122864;28;20175;-86
2022/07/06 10:01:41;;;;;;;3.20;1.70;;;24.40;99.90;;;;;;5123572;28;20203;-86
2022/07/06 10:04:08;;;;;;;4.03;2.00;;;24.50;99.90;;;;;;5122893;28;20175;-86
2022/07/06 10:06:35;;;;;;;2.50;1.70;;;24.60;99.90;;;;;;5123133;28;20181;-86
2022/07/06 10:09:01;;;;;;;2.30;1.70;;;24.70;99.90;;;;;;5124463;28;20170;-86
2022/07/06 10:11:29;;;;;;;2.73;1.63;;;24.70;99.90;;;;;;5129419;28;20187;-85
2022/07/06 10:13:57;;;;;;;2.20;1.83;;;24.80;99.90;;;;;;5121806;28;20168;-86
2022/07/06 10:16:24;;;;;;;3.50;1.53;;;24.90;99.90;;;;;;5121477;28;20190;-86
2022/07/06 10:18:53;;;;;;;3.13;1.47;;;24.50;99.90;;;;;;5121707;28;20179;-85
2022/07/06 10:21:20;;;;;;;3.50;1.30;;;24.40;99.90;;;;;;5119455;28;20214;-85
2022/07/06 10:23:46;;;;;;;3.63;1.70;;;24.50;99.90;;;;;;5120732;28;20214;-85
2022/07/06 10:26:13;;;;;;;2.03;1.33;;;24.60;99.90;;;;;;5119806;28;20580;-85
2022/07/06 10:28:39;;;;;;;4.30;1.50;;;24.70;99.90;;;;;;5120761;28;20253;-86
2022/07/06 10:31:06;;;;;;;2.00;1.30;;;25.00;99.90;;;;;;5120930;28;20191;-85
2022/07/06 10:33:33;;;;;;;3.50;1.30;;;25.20;99.90;;;;;;5121050;28;20186;-84
2022/07/06 10:35:58;;;;;;;1.43;1.23;;;25.30;99.90;;;;;;5121862;28;20232;-85
2022/07/06 10:38:35;;;;;;;2.27;1.13;;;25.30;99.90;;;;;;5121878;28;20228;-85
2022/07/06 10:41:06;;;;;;;3.07;1.23;;;25.50;99.90;;;;;;5122044;28;20191;-85
2022/07/06 10:43:45;;;;;;;2.83;1.43;;;25.60;99.90;;;;;;5123988;28;20214;-86
2022/07/06 10:46:13;;;;;;;1.83;1.30;;;25.80;99.90;;;;;;5122650;28;20768;-86
2022/07/06 10:48:44;;;;;;;1.83;1.30;;;25.70;99.90;;;;;;5123086;28;20172;-86
2022/07/06 10:51:32;;;;;;;2.23;1.60;;;25.90;99.90;;;;;;5123514;28;20172;-86
2022/07/06 10:54:01;;;;;;;2.63;1.40;;;25.90;99.90;;;;;;5124031;28;20165;-85
2022/07/06 10:56:38;;;;;;;4.63;1.70;;;25.90;99.90;;;;;;5123127;28;20185;-85
2022/07/06 10:59:17;;;;;;;3.20;1.43;;;26.00;99.90;;;;;;5123375;28;20179;-85
2022/07/06 11:02:15;;;;;;;2.97;1.60;;;26.00;99.90;;;;;;5123566;28;20200;-86
2022/07/06 11:04:43;;;;;;;4.40;1.70;;;26.00;99.90;;;;;;5123115;28;20172;-86
2022/07/06 11:07:19;;;;;;;3.77;1.30;;;26.00;99.90;;;;;;5126890;28;20168;-85
2022/07/06 11:09:59;;;;;;;5.00;1.77;;;26.20;99.90;;;;;;5123864;28;20174;-86
2022/07/06 11:12:25;;;;;;;2.97;1.70;;;26.40;99.90;;;;;;5137179;28;20192;-85
2022/07/06 11:14:52;;;;;;;1.47;1.37;;;26.50;99.90;;;;;;5136738;28;20172;-85
2022/07/06 11:17:19;;;;;;;2.57;1.50;;;26.60;99.90;;;;;;5127282;28;20182;-85
2022/07/06 11:19:50;;;;;;;1.40;1.30;;;26.50;96.10;;;;;;5124538;28;20584;-86
2022/07/06 11:22:18;;;;;;;1.67;1.40;;;26.60;96.10;;;;;;5125494;28;20203;-86
2022/07/06 11:24:45;;;;;;;3.77;1.50;;;26.40;95.40;;;;;;5123901;28;20233;-86
2022/07/06 11:27:10;;;;;;;1.97;1.20;;;26.50;95.50;;;;;;5122421;28;20204;-85
2022/07/06 11:29:38;;;;;;;1.57;1.30;;;26.40;94.20;;;;;;5122283;28;20657;-86
2022/07/06 11:32:09;;;;;;;1.90;1.13;;;26.60;99.70;;;;;;5123081;28;20208;-86
2022/07/06 11:34:43;;;;;;;3.37;1.43;;;26.90;99.90;;;;;;5123527;28;20528;-86
2022/07/06 11:37:11;;;;;;;3.37;1.23;;;27.00;96.10;;;;;;5124618;28;20199;-86
2022/07/06 11:39:40;;;;;;;2.80;1.27;;;27.10;97.00;;;;;;5123404;28;20161;-86
2022/07/06 11:42:07;;;;;;;2.10;1.20;;;27.10;96.20;;;;;;5124088;28;20205;-86
2022/07/06 11:44:37;;;;;;;1.40;1.13;;;27.30;99.90;;;;;;5123681;28;20550;-86
2022/07/06 11:47:04;;;;;;;3.50;1.30;;;27.30;97.60;;;;;;5123685;28;20176;-85
2022/07/06 11:49:30;;;;;;;1.70;1.47;;;26.80;94.50;;;;;;5125315;28;20167;-86
2022/07/06 11:51:57;;;;;;;3.77;1.30;;;26.20;94.80;;;;;;5124509;28;20202;-85
2022/07/06 11:54:24;;;;;;;6.43;2.03;;;25.70;95.50;;;;;;5124121;28;20187;-85
2022/07/06 11:56:58;;;;;;;4.00;1.50;;;25.90;96.70;;;;;;5124987;28;20176;-86
2022/07/06 11:59:35;;;;;;;3.03;1.50;;;26.20;99.20;;;;;;5126286;28;20182;-86
2022/07/06 12:02:12;;;;;;;2.10;1.50;;;26.60;98.00;;;;;;5126148;28;20209;-86
2022/07/06 12:04:40;;;;;;;1.57;1.20;;;27.00;97.90;;;;;;5127075;28;20171;-86
2022/07/06 12:07:08;;;;;;;1.90;1.40;;;27.20;96.80;;;;;;5128672;28;20207;-85
2022/07/06 12:09:35;;;;;;;2.20;1.27;;;27.20;94.10;;;;;;5126502;28;20173;-85
2022/07/06 12:12:02;;;;;;;4.33;1.53;;;27.30;94.50;;;;;;5123215;28;20685;-87
2022/07/06 12:14:29;;;;;;;4.00;1.30;;;27.30;93.00;;;;;;5119878;28;20177;-86
2022/07/06 12:16:55;;;;;;;2.03;1.50;;;27.50;92.00;;;;;;5121271;28;20208;-87
2022/07/06 12:19:23;;;;;;;1.93;1.37;;;27.40;92.10;;;;;;5123573;28;20193;-87
2022/07/06 12:21:52;;;;;;;4.63;1.40;;;27.50;95.30;;;;;;5121924;28;20635;-87
2022/07/06 12:24:20;;;;;;;2.70;1.40;;;27.60;90.80;;;;;;5121215;28;20179;-87
2022/07/06 12:26:46;;;;;;;3.43;1.33;;;27.70;91.80;;;;;;5121732;28;20270;-83
2022/07/06 12:29:13;;;;;;;4.33;1.40;;;27.60;92.20;;;;;;5124358;28;20181;-84
2022/07/06 12:31:38;;;;;;;5.30;1.73;;;27.10;93.20;;;;;;5125054;28;20196;-84
2022/07/06 12:34:05;;;;;;;5.17;1.70;;;27.10;92.40;;;;;;5123871;28;20177;-84
2022/07/06 12:36:45;;;;;;;7.27;1.60;;;27.40;97.10;;;;;;5123783;28;20180;-84
2022/07/06 12:39:13;;;;;;;8.07;1.60;;;27.60;90.50;;;;;;5123847;28;20690;-85
2022/07/06 12:41:45;;;;;;;2.33;1.33;;;27.70;94.50;;;;;;5123132;28;20223;-87
2022/07/06 12:44:12;;;;;;;1.67;1.40;;;27.60;84.70;;;;;;5124167;28;20174;-87
2022/07/06 12:46:39;;;;;;;2.20;1.20;;;27.50;90.30;;;;;;5127060;28;20264;-87
2022/07/06 12:49:14;;;;;;;2.43;1.57;;;27.50;90.30;;;;;;5135106;28;20170;-86
2022/07/06 12:51:53;;;;;;;1.30;1.20;;;27.60;85.80;;;;;;5136156;28;20198;-84
2022/07/06 12:54:19;;;;;;;6.80;1.50;;;27.70;88.50;;;;;;5122609;28;20263;-86
2022/07/06 12:57:09;;;;;;;4.73;2.00;;;27.80;89.30;;;;;;5123277;28;20205;-87
2022/07/06 12:59:38;;;;;;;3.47;1.20;;;27.50;91.10;;;;;;5124744;28;20167;-84
2022/07/06 13:02:09;;;;;;;2.77;1.40;;;27.50;90.70;;;;;;5122283;28;20214;-87
2022/07/06 13:04:36;;;;;;;3.13;1.17;;;27.70;92.90;;;;;;5123815;28;20600;-87
2022/07/06 13:07:02;;;;;;;4.40;1.50;;;28.10;92.30;;;;;;5125930;28;20178;-85